createdAt,value
2023-04-27T00:01:54.622Z,78.01
2023-04-27T00:04:23.264Z,78.22
2023-04-27T00:06:52.454Z,78.40
2023-04-27T00:09:20.922Z,78.57
2023-04-27T00:11:49.412Z,78.84
2023-04-27T00:14:17.845Z,79.06
2023-04-27T00:16:46.501Z,79.24
2023-04-27T00:19:15.747Z,79.43
2023-04-27T00:21:44.449Z,79.66
2023-04-27T00:24:12.936Z,79.79
2023-04-27T00:26:41.822Z,80.01
2023-04-27T00:29:10.199Z,80.37
2023-04-27T00:31:40.970Z,80.73
2023-04-27T00:34:09.714Z,80.74
2023-04-27T00:36:38.305Z,80.93
2023-04-27T00:39:06.791Z,81.03
2023-04-27T00:41:39.977Z,81.09
2023-04-27T00:44:08.348Z,80.84
2023-04-27T00:46:37.205Z,80.79
2023-04-27T00:49:05.942Z,80.64
2023-04-27T00:51:34.302Z,80.32
2023-04-27T00:54:02.891Z,80.12
2023-04-27T00:56:32.298Z,79.75
2023-04-27T00:59:01.221Z,79.57
2023-04-27T01:01:30.671Z,79.42
2023-04-27T01:03:59.869Z,79.21
2023-04-27T01:06:30.212Z,78.97
2023-04-27T01:08:58.621Z,78.87
2023-04-27T01:11:27.291Z,78.82
2023-04-27T01:13:57.106Z,78.73
2023-04-27T01:16:25.613Z,78.69
2023-04-27T01:18:54.326Z,78.61
2023-04-27T01:21:25.490Z,78.76
2023-04-27T01:23:54.483Z,78.68
2023-04-27T01:26:23.079Z,78.78
2023-04-27T01:28:51.451Z,78.87
2023-04-27T01:31:19.763Z,78.73
2023-04-27T01:33:48.723Z,78.71
2023-04-27T01:36:17.513Z,78.71
2023-04-27T01:38:46.201Z,78.71
2023-04-27T01:41:14.792Z,78.72
2023-04-27T01:43:44.096Z,78.54
2023-04-27T01:46:14.381Z,78.60
2023-04-27T01:48:42.808Z,78.50
2023-04-27T01:51:12.737Z,78.41
2023-04-27T01:53:42.293Z,78.48
2023-04-27T01:56:11.105Z,78.45
2023-04-27T01:58:39.572Z,78.64
2023-04-27T02:01:08.171Z,78.47
2023-04-27T02:03:36.901Z,78.19
2023-04-27T02:06:07.685Z,78.04
2023-04-27T02:08:36.427Z,78.38
2023-04-27T02:11:05.270Z,77.93
2023-04-27T02:13:33.743Z,77.92
2023-04-27T02:16:05.343Z,77.44
2023-04-27T02:18:34.004Z,77.00
2023-04-27T02:21:02.454Z,76.70
2023-04-27T02:23:30.832Z,76.38
2023-04-27T02:25:59.123Z,76.06
2023-04-27T02:28:27.722Z,76.05
2023-04-27T02:30:56.896Z,75.79
2023-04-27T02:33:25.476Z,76.05
2023-04-27T02:35:54.060Z,76.08
2023-04-27T02:38:23.787Z,76.14
2023-04-27T02:40:55.323Z,76.20
2023-04-27T02:43:23.815Z,76.31
2023-04-27T02:45:52.617Z,76.37
2023-04-27T02:48:20.860Z,76.65
2023-04-27T02:50:49.447Z,76.56
2023-04-27T02:53:17.837Z,76.66
2023-04-27T02:55:48.443Z,76.78
2023-04-27T02:58:17.805Z,76.65
2023-04-27T03:00:47.598Z,76.84
2023-04-27T03:03:17.519Z,77.05
2023-04-27T03:05:46.711Z,77.32
2023-04-27T03:08:15.186Z,77.44
2023-04-27T03:10:43.766Z,77.33
2023-04-27T03:13:12.434Z,77.68
2023-04-27T03:15:41.025Z,77.88
2023-04-27T03:18:09.640Z,78.23
2023-04-27T03:20:38.182Z,78.36
2023-04-27T03:23:07.280Z,78.36
2023-04-27T03:25:35.856Z,78.48
2023-04-27T03:28:04.653Z,78.64
2023-04-27T03:30:33.056Z,78.91
2023-04-27T03:33:02.358Z,78.76
2023-04-27T03:35:31.347Z,78.81
2023-04-27T03:38:00.008Z,78.77
2023-04-27T03:40:28.397Z,78.90
2023-04-27T03:42:59.040Z,78.96
2023-04-27T03:45:27.925Z,78.97
2023-04-27T03:47:56.755Z,78.93
2023-04-27T03:50:25.798Z,78.78
2023-04-27T03:52:54.433Z,78.71
2023-04-27T03:55:22.960Z,78.75
2023-04-27T03:57:51.741Z,78.61
2023-04-27T04:00:20.532Z,78.47
2023-04-27T04:02:49.093Z,78.14
2023-04-27T04:05:19.181Z,77.68
2023-04-27T04:07:47.717Z,76.86
2023-04-27T04:10:16.808Z,76.44
2023-04-27T04:12:45.612Z,76.39
2023-04-27T04:15:14.592Z,75.32
2023-04-27T04:17:44.231Z,74.05
2023-04-27T04:20:12.812Z,73.57
2023-04-27T04:22:41.151Z,72.89
2023-04-27T04:25:10.359Z,72.67
2023-04-27T04:27:39.275Z,72.44
2023-04-27T04:30:08.555Z,72.16
2023-04-27T04:32:40.731Z,71.91
2023-04-27T04:35:09.294Z,71.33
2023-04-27T04:37:42.067Z,71.22
2023-04-27T04:40:11.219Z,71.36
2023-04-27T04:42:40.491Z,71.38
2023-04-27T04:45:10.750Z,71.35
2023-04-27T04:47:39.851Z,71.25
2023-04-27T04:50:10.461Z,71.65
2023-04-27T04:52:39.834Z,71.57
2023-04-27T04:55:10.028Z,71.00
2023-04-27T04:57:38.431Z,70.56
2023-04-27T05:00:17.257Z,69.69
2023-04-27T05:02:46.412Z,69.60
2023-04-27T05:05:15.046Z,69.97
2023-04-27T05:07:44.747Z,69.15
2023-04-27T05:10:13.445Z,68.67
2023-04-27T05:12:42.124Z,68.43
2023-04-27T05:15:11.283Z,68.03
2023-04-27T05:17:40.282Z,67.33
2023-04-27T05:20:10.094Z,67.48
2023-04-27T05:22:38.491Z,67.15
2023-04-27T05:25:07.786Z,66.47
2023-04-27T05:27:36.274Z,65.96
2023-04-27T05:30:05.311Z,65.49
2023-04-27T05:32:34.134Z,65.10
2023-04-27T05:35:02.541Z,64.99
2023-04-27T05:37:31.128Z,64.56
2023-04-27T05:39:59.705Z,64.52
2023-04-27T05:42:28.289Z,64.51
2023-04-27T05:44:56.762Z,63.63
2023-04-27T05:47:25.789Z,62.86
2023-04-27T05:49:54.780Z,62.42
2023-04-27T05:52:29.785Z,61.97
2023-04-27T05:54:58.978Z,61.92
2023-04-27T05:57:28.018Z,61.84
2023-04-27T05:59:56.568Z,61.77
2023-04-27T06:02:25.502Z,61.66
2023-04-27T06:04:54.205Z,62.55
2023-04-27T06:07:22.865Z,62.29
2023-04-27T06:09:51.721Z,61.81
2023-04-27T06:12:20.714Z,61.76
2023-04-27T06:14:49.708Z,61.53
2023-04-27T06:17:18.278Z,61.62
2023-04-27T06:19:47.067Z,61.53
2023-04-27T06:22:15.777Z,61.40
2023-04-27T06:24:44.348Z,60.97
2023-04-27T06:27:13.550Z,60.12
2023-04-27T06:29:41.975Z,60.34
2023-04-27T06:32:10.653Z,60.66
2023-04-27T06:34:39.634Z,59.88
2023-04-27T06:37:09.120Z,59.80
2023-04-27T06:39:37.788Z,59.31
2023-04-27T06:42:06.783Z,59.03
2023-04-27T06:44:35.151Z,58.76
2023-04-27T06:47:03.845Z,58.28
2023-04-27T06:49:32.537Z,58.93
2023-04-27T06:52:03.287Z,58.42
2023-04-27T06:54:32.055Z,58.56
2023-04-27T06:57:00.878Z,57.92
2023-04-27T06:59:29.436Z,57.83
2023-04-27T07:01:58.070Z,57.92
2023-04-27T07:04:27.710Z,58.10
2023-04-27T07:06:57.130Z,58.22
2023-04-27T07:09:27.735Z,58.12
2023-04-27T07:11:58.579Z,56.35
2023-04-27T07:14:27.589Z,56.99
2023-04-27T07:16:56.677Z,56.99
2023-04-27T07:19:24.969Z,55.47
2023-04-27T07:21:53.848Z,53.80
2023-04-27T07:24:22.688Z,53.88
2023-04-27T07:26:51.634Z,54.31
2023-04-27T07:29:26.930Z,53.18
2023-04-27T07:31:56.312Z,52.67
2023-04-27T07:34:25.249Z,51.91
2023-04-27T07:36:57.298Z,52.08
2023-04-27T07:39:27.032Z,51.61
2023-04-27T07:41:55.758Z,51.47
2023-04-27T07:44:24.491Z,51.56
2023-04-27T07:46:55.085Z,49.68
2023-04-27T07:49:25.267Z,48.29
2023-04-27T07:51:54.043Z,47.51
2023-04-27T07:54:23.134Z,46.85
2023-04-27T07:56:52.044Z,47.14
2023-04-27T07:59:20.623Z,47.90
2023-04-27T08:01:49.435Z,46.66
2023-04-27T08:04:18.515Z,46.33
2023-04-27T08:06:47.924Z,46.03
2023-04-27T08:09:17.608Z,47.90
2023-04-27T08:11:46.402Z,49.04
2023-04-27T08:14:15.292Z,49.60
2023-04-27T08:16:44.815Z,48.73
2023-04-27T08:19:13.504Z,47.61
2023-04-27T08:21:42.537Z,46.24
2023-04-27T08:24:11.260Z,45.62
2023-04-27T08:26:57.351Z,44.69
2023-04-27T08:29:28.530Z,44.56
2023-04-27T08:32:00.222Z,44.38
2023-04-27T08:34:30.164Z,42.77
2023-04-27T08:36:58.767Z,43.04
2023-04-27T08:39:28.457Z,43.73
2023-04-27T08:41:57.174Z,44.73
2023-04-27T08:44:25.845Z,44.84
2023-04-27T08:46:54.829Z,43.03
2023-04-27T08:49:23.825Z,42.67
2023-04-27T08:51:52.944Z,42.53
2023-04-27T08:54:22.228Z,41.95
2023-04-27T08:56:51.616Z,41.59
2023-04-27T08:59:20.319Z,40.48
2023-04-27T09:01:50.083Z,40.94
2023-04-27T09:04:20.475Z,40.89
2023-04-27T09:06:50.065Z,41.69
2023-04-27T09:09:25.693Z,42.81
2023-04-27T09:11:54.302Z,41.59
2023-04-27T09:14:24.966Z,41.67
2023-04-27T09:16:59.742Z,42.77
2023-04-27T09:19:30.342Z,42.24
2023-04-27T09:22:09.528Z,42.76
2023-04-27T09:24:39.135Z,43.25
2023-04-27T09:27:10.400Z,42.65
2023-04-27T09:29:40.376Z,43.36
2023-04-27T09:32:17.129Z,43.91
2023-04-27T09:34:57.144Z,43.31
2023-04-27T09:37:31.541Z,43.53
2023-04-27T09:40:03.132Z,43.51
2023-04-27T09:42:32.372Z,42.80
2023-04-27T09:45:01.879Z,43.31
2023-04-27T09:47:31.921Z,43.82
2023-04-27T09:50:04.679Z,44.91
2023-04-27T09:52:33.765Z,45.20
2023-04-27T09:55:03.757Z,45.74
2023-04-27T09:57:54.310Z,45.99
2023-04-27T10:00:41.505Z,46.23
2023-04-27T10:03:25.485Z,45.98
2023-04-27T10:06:32.674Z,45.53
2023-04-27T10:09:15.818Z,45.61
2023-04-27T10:11:45.718Z,44.71
2023-04-27T10:14:20.417Z,44.98
2023-04-27T10:16:55.600Z,45.20
2023-04-27T10:19:27.191Z,45.00
2023-04-27T10:22:08.485Z,45.33
2023-04-27T10:24:43.023Z,45.33
2023-04-27T10:27:16.296Z,44.94
2023-04-27T10:29:47.096Z,44.82
2023-04-27T10:32:26.702Z,44.80
2023-04-27T10:35:09.052Z,44.88
2023-04-27T10:37:42.585Z,45.20
2023-04-27T10:40:17.496Z,45.38
2023-04-27T10:42:49.705Z,45.53
2023-04-27T10:45:31.530Z,45.65
2023-04-27T10:48:01.877Z,45.81
2023-04-27T10:50:31.730Z,44.86
2023-04-27T10:53:02.948Z,45.41
2023-04-27T10:55:32.302Z,44.86
2023-04-27T10:58:02.290Z,44.74
2023-04-27T11:00:34.136Z,44.43
2023-04-27T11:03:20.001Z,43.49
2023-04-27T11:05:58.983Z,42.50
2023-04-27T11:08:28.473Z,43.30
